Time;durP1;ratioP1;P1;durP2;ratioP2;P2;SDS_P1;SDS_P2;PMS_P1;PMS_P2;Temp;Humidity;BMP_temperature;BMP_pressure;BME280_temperature;BME280_humidity;BME280_pressure;Samples;Min_cycle;Max_cycle;Signal;HPM_P1;HPM_P2
2023/06/29 00:01:02;;;;;;;4.10;2.15;;;17.90;99.90;;;;;;4883987;29;20052;-80
2023/06/29 00:03:48;;;;;;;4.78;2.10;;;17.90;99.90;;;;;;4885327;29;20115;-80
2023/06/29 00:06:36;;;;;;;4.70;2.60;;;17.90;99.90;;;;;;4888855;29;20419;-80
2023/06/29 00:09:23;;;;;;;5.60;2.92;;;17.90;99.90;;;;;;4895154;29;20051;-79
2023/06/29 00:12:09;;;;;;;6.55;2.47;;;17.80;99.90;;;;;;4885814;29;20054;-79
2023/06/29 00:14:55;;;;;;;3.50;2.10;;;17.80;99.90;;;;;;4908846;29;20052;-79
2023/06/29 00:17:41;;;;;;;5.25;2.60;;;17.90;99.90;;;;;;4897272;29;20051;-79
2023/06/29 00:20:28;;;;;;;6.07;2.42;;;17.90;99.90;;;;;;4890521;29;20047;-79
2023/06/29 00:23:14;;;;;;;5.15;2.20;;;17.90;99.90;;;;;;4892279;29;20068;-79
2023/06/29 00:26:01;;;;;;;3.95;2.50;;;17.90;99.90;;;;;;4888245;29;20055;-79
2023/06/29 00:28:47;;;;;;;5.28;2.28;;;17.80;99.90;;;;;;4899426;29;20468;-79
2023/06/29 00:31:33;;;;;;;4.25;2.03;;;17.80;99.90;;;;;;4876722;29;20048;-79
2023/06/29 00:34:19;;;;;;;4.80;2.25;;;17.80;99.90;;;;;;4889292;29;20040;-79
2023/06/29 00:37:05;;;;;;;5.82;2.38;;;17.80;99.90;;;;;;4890397;29;20111;-80
2023/06/29 00:39:51;;;;;;;6.25;2.10;;;17.80;99.90;;;;;;4887412;29;20044;-79
2023/06/29 00:42:37;;;;;;;5.05;2.40;;;17.80;99.90;;;;;;4894006;29;20478;-79
2023/06/29 00:45:23;;;;;;;6.35;2.88;;;17.80;99.90;;;;;;4875106;29;20139;-79
2023/06/29 00:48:09;;;;;;;5.38;2.28;;;17.70;99.90;;;;;;4890403;29;20040;-79
2023/06/29 00:50:55;;;;;;;5.55;2.00;;;17.70;99.90;;;;;;4900659;29;20123;-80
2023/06/29 00:53:42;;;;;;;4.65;2.20;;;17.70;99.90;;;;;;4886065;29;20097;-80
2023/06/29 00:56:29;;;;;;;5.97;2.20;;;17.80;99.90;;;;;;4893961;29;20048;-79
2023/06/29 00:59:15;;;;;;;8.30;2.90;;;17.80;99.90;;;;;;4888122;29;20044;-79
2023/06/29 01:02:01;;;;;;;3.75;2.20;;;17.80;99.90;;;;;;4895810;29;20300;-79
2023/06/29 01:04:47;;;;;;;5.32;2.30;;;17.80;99.90;;;;;;4891634;29;20045;-79
2023/06/29 01:07:52;;;;;;;3.47;2.15;;;17.80;99.90;;;;;;4888463;29;20454;-79
2023/06/29 01:10:38;;;;;;;5.47;2.78;;;17.70;99.90;;;;;;4904099;29;20037;-79
2023/06/29 01:13:24;;;;;;;6.97;2.88;;;17.80;99.90;;;;;;4884371;29;20044;-79
2023/06/29 01:16:10;;;;;;;4.03;2.25;;;17.70;99.90;;;;;;4875630;29;20044;-79
2023/06/29 01:18:56;;;;;;;8.40;2.60;;;17.70;99.90;;;;;;4872617;29;20108;-79
2023/06/29 01:21:54;;;;;;;9.27;2.60;;;17.60;99.90;;;;;;4884367;29;20060;-79
2023/06/29 01:24:40;;;;;;;5.75;2.50;;;17.60;99.90;;;;;;4884390;29;20393;-79
2023/06/29 01:27:27;;;;;;;7.05;2.40;;;17.60;99.90;;;;;;4889782;29;20040;-79
2023/06/29 01:30:13;;;;;;;4.90;2.22;;;17.60;99.90;;;;;;4877278;29;20066;-79
2023/06/29 01:32:59;;;;;;;3.22;2.15;;;17.60;99.90;;;;;;4899831;29;20438;-79
2023/06/29 01:35:45;;;;;;;5.03;2.60;;;17.50;99.90;;;;;;4884010;29;20386;-79
2023/06/29 01:38:36;;;;;;;7.00;2.88;;;17.60;99.90;;;;;;4906683;29;20428;-79
2023/06/29 01:41:22;;;;;;;7.75;2.30;;;17.60;99.90;;;;;;4894004;29;20048;-79
2023/06/29 01:44:10;;;;;;;9.48;2.70;;;17.50;99.90;;;;;;4876134;29;20127;-79
2023/06/29 01:46:56;;;;;;;4.35;2.35;;;17.60;99.90;;;;;;4900860;29;20044;-79
2023/06/29 01:49:43;;;;;;;3.72;2.17;;;17.60;99.90;;;;;;4882646;29;20036;-79
2023/06/29 01:52:28;;;;;;;6.40;2.70;;;17.50;99.90;;;;;;4898538;29;20541;-79
2023/06/29 01:55:14;;;;;;;4.80;2.20;;;17.50;99.90;;;;;;4894430;29;20049;-79
2023/06/29 01:58:00;;;;;;;4.75;2.50;;;17.50;99.90;;;;;;4875352;29;20364;-79
2023/06/29 02:00:46;;;;;;;6.28;2.25;;;17.50;99.90;;;;;;4883451;29;20054;-79
2023/06/29 02:03:32;;;;;;;4.18;2.42;;;17.50;99.90;;;;;;4877517;29;20344;-79
2023/06/29 02:06:18;;;;;;;6.38;2.38;;;17.50;99.90;;;;;;4885685;29;20044;-79
2023/06/29 02:09:04;;;;;;;5.00;2.75;;;17.50;99.90;;;;;;4881519;29;20356;-79
2023/06/29 02:11:50;;;;;;;4.78;2.50;;;17.50;99.90;;;;;;4884135;29;20487;-79
2023/06/29 02:14:36;;;;;;;8.60;2.45;;;17.50;99.90;;;;;;4901699;29;20058;-79
2023/06/29 02:17:22;;;;;;;3.83;1.95;;;17.40;99.90;;;;;;4882580;29;20044;-79
2023/06/29 02:20:11;;;;;;;4.32;2.42;;;17.50;99.90;;;;;;4879024;29;20052;-79
2023/06/29 02:22:57;;;;;;;4.47;2.20;;;17.40;99.90;;;;;;4890290;29;20071;-79
2023/06/29 02:25:43;;;;;;;8.77;3.15;;;17.40;99.90;;;;;;4885644;29;20040;-79
2023/06/29 02:28:29;;;;;;;4.35;2.50;;;17.40;99.90;;;;;;4900393;29;20040;-79
2023/06/29 02:31:15;;;;;;;5.32;2.60;;;17.40;99.90;;;;;;4877077;29;20055;-79
2023/06/29 02:34:01;;;;;;;8.10;2.80;;;17.40;99.90;;;;;;4885204;29;20043;-79
2023/06/29 02:36:47;;;;;;;6.30;2.53;;;17.40;99.90;;;;;;4882343;29;20045;-79
2023/06/29 02:39:33;;;;;;;7.30;2.85;;;17.30;99.90;;;;;;4905165;29;20040;-79
2023/06/29 02:42:19;;;;;;;5.70;2.72;;;17.30;99.90;;;;;;4889496;29;20048;-79
2023/06/29 02:45:05;;;;;;;6.38;2.67;;;17.30;99.90;;;;;;4888205;29;20151;-79
2023/06/29 02:47:51;;;;;;;6.93;2.78;;;17.30;99.90;;;;;;4874400;29;20657;-79
2023/06/29 02:50:37;;;;;;;6.80;2.67;;;17.30;99.90;;;;;;4895759;29;20047;-79
2023/06/29 02:53:23;;;;;;;4.30;2.55;;;17.30;99.90;;;;;;4887025;29;20507;-79
2023/06/29 02:56:09;;;;;;;6.13;2.58;;;17.20;99.90;;;;;;4896515;29;20041;-79
2023/06/29 02:58:55;;;;;;;4.82;2.72;;;17.30;99.90;;;;;;4911404;29;20127;-79
2023/06/29 03:01:41;;;;;;;8.15;3.05;;;17.30;99.90;;;;;;4903912;29;20039;-79
2023/06/29 03:04:27;;;;;;;7.82;2.92;;;17.30;99.90;;;;;;4896800;29;20147;-79
2023/06/29 03:07:13;;;;;;;6.75;3.03;;;17.30;99.90;;;;;;4889227;29;20470;-79
2023/06/29 03:09:59;;;;;;;5.57;2.97;;;17.30;99.90;;;;;;4896352;29;20553;-79
2023/06/29 03:12:45;;;;;;;4.60;2.38;;;17.30;99.90;;;;;;4913436;29;20461;-80
2023/06/29 03:15:31;;;;;;;6.93;2.42;;;17.40;99.90;;;;;;4890905;29;20147;-80
2023/06/29 03:18:17;;;;;;;6.25;3.15;;;17.30;99.90;;;;;;4886356;29;20044;-79
2023/06/29 03:21:03;;;;;;;5.38;2.50;;;17.30;99.90;;;;;;4882614;29;20056;-79
2023/06/29 03:23:49;;;;;;;5.43;2.60;;;17.30;99.90;;;;;;4897860;29;20554;-79
2023/06/29 03:26:35;;;;;;;7.63;2.80;;;17.40;99.90;;;;;;4891863;29;20431;-79
2023/06/29 03:29:21;;;;;;;7.20;2.70;;;17.30;99.90;;;;;;4878876;29;20050;-79
2023/06/29 03:32:07;;;;;;;7.85;2.90;;;17.40;99.90;;;;;;4898458;29;20358;-79
2023/06/29 03:34:53;;;;;;;4.65;2.83;;;17.40;99.90;;;;;;4891086;29;20489;-79
2023/06/29 03:37:39;;;;;;;6.65;2.70;;;17.50;99.90;;;;;;4896640;29;20054;-79
2023/06/29 03:40:25;;;;;;;6.22;3.03;;;17.50;99.90;;;;;;4886793;29;20414;-79
2023/06/29 03:43:11;;;;;;;5.35;2.55;;;17.50;99.90;;;;;;4884659;29;20052;-79
2023/06/29 03:45:58;;;;;;;6.72;2.70;;;17.50;99.90;;;;;;4885298;29;20119;-78
2023/06/29 03:48:44;;;;;;;11.95;2.90;;;17.50;99.90;;;;;;4890814;29;20036;-79
2023/06/29 03:51:30;;;;;;;7.13;2.90;;;17.50;99.90;;;;;;4890944;29;20044;-79
2023/06/29 03:54:16;;;;;;;6.55;2.50;;;17.50;99.90;;;;;;4888049;29;20149;-79
2023/06/29 03:57:05;;;;;;;7.60;2.80;;;17.50;99.90;;;;;;4884807;29;20471;-79
2023/06/29 03:59:51;;;;;;;6.40;2.75;;;17.40;99.90;;;;;;4897596;29;20080;-79
2023/06/29 04:02:37;;;;;;;6.63;3.05;;;17.40;99.90;;;;;;4888880;29;20473;-78
2023/06/29 04:05:23;;;;;;;5.90;2.95;;;17.40;99.90;;;;;;4872447;29;20059;-79
2023/06/29 04:08:09;;;;;;;6.13;2.92;;;17.40;99.90;;;;;;4885490;29;20109;-79
2023/06/29 04:10:55;;;;;;;4.65;2.40;;;17.40;99.90;;;;;;4895621;29;20040;-79
2023/06/29 04:13:43;;;;;;;4.85;2.20;;;17.40;99.90;;;;;;4885586;29;20167;-78
2023/06/29 04:16:29;;;;;;;9.20;3.50;;;17.40;99.90;;;;;;4878249;29;20084;-78
2023/06/29 04:19:15;;;;;;;5.05;2.40;;;17.50;99.90;;;;;;4906963;29;20296;-78
2023/06/29 04:22:00;;;;;;;7.03;2.50;;;17.40;99.90;;;;;;4901046;29;20055;-78
2023/06/29 04:24:47;;;;;;;7.40;2.80;;;17.40;99.90;;;;;;4884693;29;20135;-78
2023/06/29 04:27:34;;;;;;;5.65;3.13;;;17.40;99.90;;;;;;4884625;29;20411;-78
2023/06/29 04:30:20;;;;;;;5.70;3.00;;;17.40;99.90;;;;;;4878200;29;20103;-78
2023/06/29 04:33:09;;;;;;;6.57;2.75;;;17.40;99.90;;;;;;4877799;29;20750;-78
2023/06/29 04:35:56;;;;;;;8.30;2.92;;;17.40;99.90;;;;;;4900836;29;20112;-78
2023/06/29 04:38:42;;;;;;;5.75;3.00;;;17.50;99.90;;;;;;4880822;29;20056;-78
2023/06/29 04:41:31;;;;;;;7.28;3.00;;;17.50;99.90;;;;;;4895355;29;20382;-78
2023/06/29 04:44:17;;;;;;;5.55;2.70;;;17.50;99.90;;;;;;4902783;29;20418;-78
2023/06/29 04:47:03;;;;;;;4.70;2.60;;;17.50;99.90;;;;;;4888265;29;20075;-78
2023/06/29 04:49:51;;;;;;;6.70;3.28;;;17.60;99.90;;;;;;4871269;29;20360;-78
2023/06/29 04:52:37;;;;;;;4.70;2.73;;;17.60;99.90;;;;;;4876585;29;20393;-78
2023/06/29 04:55:23;;;;;;;5.47;2.85;;;17.60;99.90;;;;;;4887454;29;20044;-78
2023/06/29 04:58:09;;;;;;;5.95;2.90;;;17.60;99.90;;;;;;4907530;29;20059;-78
2023/06/29 05:00:55;;;;;;;8.85;2.90;;;17.60;99.90;;;;;;4884628;29;20143;-78
2023/06/29 05:03:41;;;;;;;8.23;3.05;;;17.60;99.90;;;;;;4877114;29;20127;-78
2023/06/29 05:06:27;;;;;;;7.47;3.38;;;17.70;99.90;;;;;;4883907;29;20052;-78
2023/06/29 05:09:13;;;;;;;5.28;3.03;;;17.70;99.90;;;;;;4893832;29;20359;-78
2023/06/29 05:11:59;;;;;;;7.75;3.33;;;17.70;99.90;;;;;;4893473;29;20048;-78
2023/06/29 05:14:45;;;;;;;5.88;2.95;;;17.80;99.90;;;;;;4892688;29;20041;-78
2023/06/29 05:17:31;;;;;;;7.85;3.85;;;17.80;99.90;;;;;;4889403;29;20583;-78
2023/06/29 05:20:17;;;;;;;8.38;3.67;;;17.90;99.90;;;;;;4890006;29;20095;-78
2023/06/29 05:23:03;;;;;;;6.68;3.28;;;17.90;99.90;;;;;;4873594;29;20059;-78
2023/06/29 05:25:49;;;;;;;10.23;3.50;;;17.90;99.90;;;;;;4870907;29;20044;-78
2023/06/29 05:28:36;;;;;;;5.88;2.83;;;17.90;99.90;;;;;;4901366;29;20043;-79
2023/06/29 05:31:22;;;;;;;9.65;3.33;;;18.00;99.90;;;;;;4888591;29;20047;-79
2023/06/29 05:34:08;;;;;;;9.75;3.28;;;18.00;99.90;;;;;;4899278;29;20054;-79
2023/06/29 05:36:54;;;;;;;7.88;3.30;;;18.00;99.90;;;;;;4875415;29;20471;-79
2023/06/29 05:39:40;;;;;;;5.88;3.05;;;18.00;99.90;;;;;;4905604;29;20044;-79
2023/06/29 05:42:26;;;;;;;7.03;3.30;;;18.00;99.90;;;;;;4876755;29;20143;-79
2023/06/29 05:45:12;;;;;;;8.27;3.50;;;18.00;99.90;;;;;;4902078;29;20040;-78
2023/06/29 05:47:58;;;;;;;4.85;3.50;;;18.10;99.90;;;;;;4883025;29;20340;-79
2023/06/29 05:50:44;;;;;;;8.32;3.50;;;18.10;99.90;;;;;;4887278;29;20044;-79
2023/06/29 05:53:32;;;;;;;5.82;3.55;;;18.10;99.90;;;;;;4883494;29;20106;-79
2023/06/29 05:56:18;;;;;;;5.45;3.20;;;18.10;99.90;;;;;;4895071;29;20534;-78
2023/06/29 05:59:04;;;;;;;11.07;3.40;;;18.10;99.90;;;;;;4901597;29;20074;-79
2023/06/29 06:01:50;;;;;;;10.23;4.15;;;18.10;99.90;;;;;;4883178;29;20395;-79
2023/06/29 06:04:36;;;;;;;10.05;3.58;;;18.20;99.90;;;;;;4888382;29;20132;-78
2023/06/29 06:07:29;;;;;;;6.88;3.55;;;18.20;99.90;;;;;;4901162;29;20058;-79
2023/06/29 06:10:15;;;;;;;6.80;3.42;;;18.30;99.90;;;;;;4885847;29;20087;-79
2023/06/29 06:13:02;;;;;;;8.18;3.65;;;18.30;99.90;;;;;;4894085;29;20112;-79
2023/06/29 06:15:48;;;;;;;8.30;3.73;;;18.30;99.90;;;;;;4882876;29;20465;-79
2023/06/29 06:18:34;;;;;;;5.70;3.30;;;18.30;99.90;;;;;;4877251;29;20565;-79
2023/06/29 06:21:20;;;;;;;7.82;4.20;;;18.40;99.90;;;;;;4889348;29;20367;-80
2023/06/29 06:24:06;;;;;;;8.18;4.47;;;18.40;99.90;;;;;;4875203;29;20036;-81
2023/06/29 06:26:52;;;;;;;9.15;4.50;;;18.50;99.90;;;;;;4882078;29;20057;-79
2023/06/29 06:29:38;;;;;;;12.10;4.25;;;18.50;99.90;;;;;;4898747;29;20562;-80
2023/06/29 06:32:24;;;;;;;11.23;4.00;;;18.60;99.90;;;;;;4895089;29;20054;-79
2023/06/29 06:35:12;;;;;;;6.68;3.90;;;18.60;99.90;;;;;;4882314;29;20423;-80
2023/06/29 06:37:58;;;;;;;7.57;4.50;;;18.60;99.90;;;;;;4895780;29;20052;-81
2023/06/29 06:40:44;;;;;;;4.50;3.17;;;18.70;99.90;;;;;;4896155;29;20052;-80
2023/06/29 06:43:30;;;;;;;6.35;3.60;;;18.70;99.90;;;;;;4883243;29;20086;-80
2023/06/29 06:46:16;;;;;;;8.23;3.95;;;18.70;99.90;;;;;;4894369;29;20044;-81
2023/06/29 06:49:02;;;;;;;5.30;3.65;;;18.80;99.90;;;;;;4882694;29;20154;-81
2023/06/29 06:51:49;;;;;;;6.97;3.75;;;18.80;99.90;;;;;;4887805;29;20048;-81
2023/06/29 06:54:35;;;;;;;10.52;4.32;;;18.80;99.90;;;;;;4897812;29;20148;-80
2023/06/29 06:57:21;;;;;;;10.27;4.00;;;18.80;99.90;;;;;;4882527;29;20049;-80
2023/06/29 07:00:11;;;;;;;6.60;3.65;;;18.80;99.90;;;;;;4872903;29;20083;-80
2023/06/29 07:02:57;;;;;;;7.80;4.45;;;18.90;99.90;;;;;;4905900;29;20060;-80
2023/06/29 07:05:43;;;;;;;8.07;4.32;;;18.90;99.90;;;;;;4889602;29;20082;-80
2023/06/29 07:08:30;;;;;;;9.32;4.63;;;19.00;99.90;;;;;;4896159;29;20040;-80
2023/06/29 07:11:16;;;;;;;8.98;4.45;;;19.00;99.90;;;;;;4893279;29;20536;-80
2023/06/29 07:14:01;;;;;;;8.18;4.63;;;19.10;99.90;;;;;;4901373;29;20044;-80
2023/06/29 07:16:48;;;;;;;7.97;4.45;;;19.10;99.90;;;;;;4885452;29;20127;-80
2023/06/29 07:19:34;;;;;;;9.38;4.32;;;19.20;99.90;;;;;;4882437;29;20144;-80
2023/06/29 07:22:20;;;;;;;11.05;4.88;;;19.20;99.90;;;;;;4865115;29;20139;-81
2023/06/29 07:25:08;;;;;;;11.40;5.47;;;19.30;99.90;;;;;;4866796;29;20486;-81
2023/06/29 07:27:54;;;;;;;8.43;5.75;;;19.30;99.90;;;;;;4879308;29;20095;-81
2023/06/29 07:30:40;;;;;;;11.57;4.80;;;19.30;99.90;;;;;;4896068;29;20068;-80
2023/06/29 07:33:30;;;;;;;12.05;5.53;;;19.40;99.90;;;;;;4876036;29;20467;-80
2023/06/29 07:36:25;;;;;;;10.77;5.28;;;19.40;99.90;;;;;;4876531;29;20048;-79
2023/06/29 07:39:11;;;;;;;6.15;4.97;;;19.50;99.90;;;;;;4871886;29;20546;-80
2023/06/29 07:41:57;;;;;;;9.73;4.90;;;19.50;99.90;;;;;;4866510;29;20053;-79
2023/06/29 07:44:43;;;;;;;14.88;5.07;;;19.50;99.90;;;;;;4867458;29;20076;-79
2023/06/29 07:47:29;;;;;;;15.88;5.40;;;19.60;99.90;;;;;;4867865;29;20044;-79
2023/06/29 07:50:15;;;;;;;9.52;4.93;;;19.60;99.90;;;;;;4881443;29;20052;-79
2023/06/29 07:53:01;;;;;;;10.90;4.65;;;19.60;99.90;;;;;;4881247;29;20056;-79
2023/06/29 07:55:47;;;;;;;8.80;5.32;;;19.60;99.90;;;;;;4867369;29;20060;-79
2023/06/29 07:58:33;;;;;;;9.80;4.75;;;19.70;99.90;;;;;;4871426;29;20056;-79
2023/06/29 08:01:19;;;;;;;10.35;6.53;;;19.70;99.90;;;;;;4855029;29;20124;-79
2023/06/29 08:04:08;;;;;;;16.00;7.88;;;19.70;99.90;;;;;;4896612;29;20085;-79
2023/06/29 08:06:54;;;;;;;17.27;5.70;;;19.80;99.90;;;;;;4896659;29;20051;-79
2023/06/29 08:09:40;;;;;;;10.82;5.35;;;19.90;99.90;;;;;;4871285;29;20051;-79
2023/06/29 08:12:26;;;;;;;11.18;6.57;;;19.90;99.90;;;;;;4855541;29;20048;-79
2023/06/29 08:15:12;;;;;;;14.45;6.28;;;20.00;99.90;;;;;;4876566;29;20040;-79
2023/06/29 08:17:58;;;;;;;12.65;5.95;;;20.00;99.90;;;;;;4884052;29;20064;-79
2023/06/29 08:20:46;;;;;;;10.32;6.18;;;20.10;99.90;;;;;;4885795;29;20511;-80
2023/06/29 08:23:32;;;;;;;;;;;20.20;99.90;;;;;;4886265;29;20047;-79
2023/06/29 08:26:18;;;;;;;15.65;7.32;;;20.20;99.90;;;;;;4896998;29;19926;-80
2023/06/29 08:29:04;;;;;;;13.77;6.95;;;20.20;99.90;;;;;;4892004;29;20459;-80
2023/06/29 08:31:50;;;;;;;11.48;6.55;;;20.30;99.90;;;;;;4873669;29;20063;-79
2023/06/29 08:34:36;;;;;;;17.27;6.78;;;20.40;99.90;;;;;;4893713;29;20052;-79
2023/06/29 08:37:22;;;;;;;11.35;6.65;;;20.50;99.90;;;;;;4889962;29;20055;-79
2023/06/29 08:40:10;;;;;;;14.80;6.90;;;20.60;99.90;;;;;;4872431;29;20491;-79
2023/06/29 08:42:56;;;;;;;12.45;6.25;;;20.60;99.90;;;;;;4897660;29;20501;-79
2023/06/29 08:45:42;;;;;;;16.10;6.57;;;20.70;99.90;;;;;;4899602;29;20118;-78
2023/06/29 08:48:29;;;;;;;13.32;6.63;;;20.70;99.90;;;;;;4889516;29;20032;-78
2023/06/29 08:51:16;;;;;;;13.98;7.22;;;20.80;99.90;;;;;;4903631;29;20053;-78
2023/06/29 08:54:02;;;;;;;13.60;6.75;;;20.90;99.90;;;;;;4896519;29;20048;-78
2023/06/29 08:56:48;;;;;;;18.02;7.63;;;20.90;99.90;;;;;;4873158;29;20127;-78
2023/06/29 08:59:34;;;;;;;14.05;7.28;;;21.00;99.90;;;;;;4889501;29;20048;-79
2023/06/29 09:02:20;;;;;;;10.43;6.60;;;21.10;99.90;;;;;;4910581;29;20127;-78
2023/06/29 09:05:06;;;;;;;11.77;6.05;;;21.10;99.90;;;;;;4898264;29;20056;-78
2023/06/29 09:07:53;;;;;;;10.30;6.35;;;21.20;99.90;;;;;;4916196;29;20055;-78
2023/06/29 09:10:40;;;;;;;12.50;6.15;;;21.30;99.90;;;;;;4886537;29;20412;-78
2023/06/29 09:13:27;;;;;;;13.60;7.78;;;21.40;99.90;;;;;;4889143;29;20372;-78
2023/06/29 09:16:17;;;;;;;17.75;8.43;;;21.50;99.90;;;;;;4883618;29;20423;-78
2023/06/29 09:19:03;;;;;;;17.17;6.90;;;21.50;99.90;;;;;;4880818;29;20545;-78
2023/06/29 09:21:51;;;;;;;13.10;6.72;;;21.60;99.90;;;;;;4884325;29;20431;-78
2023/06/29 09:24:39;;;;;;;12.40;7.05;;;21.70;99.90;;;;;;4896097;29;20036;-78
2023/06/29 09:27:26;;;;;;;15.50;7.38;;;21.80;99.90;;;;;;4896880;29;20913;-79
2023/06/29 09:30:39;;;;;;;16.20;7.20;;;21.80;99.90;;;;;;4881300;29;20080;-78
2023/06/29 09:33:25;;;;;;;16.92;9.43;;;21.90;99.90;;;;;;4884981;29;20096;-78
2023/06/29 09:36:12;;;;;;;14.73;8.60;;;21.90;99.90;;;;;;4923346;29;20052;-78
2023/06/29 09:38:58;;;;;;;15.35;9.60;;;22.20;99.90;;;;;;4897433;29;20052;-78
2023/06/29 09:42:10;;;;;;;18.27;10.80;;;22.30;99.90;;;;;;4893319;29;20122;-78
2023/06/29 09:45:01;;;;;;;18.63;11.85;;;22.30;99.90;;;;;;4871222;29;20044;-78
2023/06/29 09:47:51;;;;;;;18.35;10.50;;;22.30;99.90;;;;;;4901398;29;20072;-78
2023/06/29 09:50:37;;;;;;;15.85;11.05;;;22.30;99.90;;;;;;4898981;29;20128;-78
2023/06/29 09:53:32;;;;;;;18.38;11.50;;;22.40;99.90;;;;;;4905453;29;20044;-78
2023/06/29 09:56:19;;;;;;;17.55;11.77;;;22.50;99.90;;;;;;4898969;29;20054;-78
2023/06/29 09:59:05;;;;;;;17.58;11.40;;;22.60;99.90;;;;;;4887879;29;20490;-78
2023/06/29 10:01:51;;;;;;;18.05;11.88;;;22.60;99.90;;;;;;4886346;29;20435;-78
2023/06/29 10:04:40;;;;;;;17.58;11.88;;;22.70;99.90;;;;;;4886787;29;20040;-78
2023/06/29 10:07:26;;;;;;;20.65;12.00;;;22.70;99.90;;;;;;4884581;29;20048;-78
2023/06/29 10:10:14;;;;;;;19.45;12.10;;;22.80;99.90;;;;;;4900238;29;20052;-78
2023/06/29 10:13:00;;;;;;;18.45;12.57;;;22.80;99.90;;;;;;4898047;29;20103;-78
2023/06/29 10:15:46;;;;;;;21.58;13.32;;;22.80;99.90;;;;;;4899673;29;20051;-78
2023/06/29 10:18:34;;;;;;;22.10;13.82;;;22.80;99.90;;;;;;4883019;29;20072;-78
2023/06/29 10:21:20;;;;;;;23.10;15.10;;;22.80;99.90;;;;;;4895534;29;20060;-78
2023/06/29 10:24:06;;;;;;;25.33;14.48;;;22.90;99.90;;;;;;4873963;29;20040;-78
2023/06/29 10:26:52;;;;;;;21.08;13.40;;;22.90;99.90;;;;;;4908167;29;20044;-78
2023/06/29 10:29:42;;;;;;;21.45;13.80;;;23.00;99.90;;;;;;4898741;29;20040;-78
2023/06/29 10:32:36;;;;;;;19.15;11.73;;;23.00;99.90;;;;;;4904218;29;20079;-78
2023/06/29 10:35:25;;;;;;;17.35;10.70;;;23.10;99.90;;;;;;4885264;29;20560;-78
2023/06/29 10:38:14;;;;;;;14.40;10.00;;;23.10;99.90;;;;;;4890284;29;20043;-78
2023/06/29 10:41:00;;;;;;;18.83;11.48;;;23.20;99.90;;;;;;4877221;29;20370;-78
2023/06/29 10:44:00;;;;;;;18.63;11.43;;;23.30;99.70;;;;;;4899221;29;20044;-79
2023/06/29 10:46:49;;;;;;;16.00;11.25;;;23.30;99.30;;;;;;4902028;29;20040;-78
2023/06/29 10:49:35;;;;;;;17.13;10.57;;;23.20;99.30;;;;;;4900038;29;20079;-79
2023/06/29 10:52:24;;;;;;;17.25;11.77;;;23.30;99.50;;;;;;4893000;29;20044;-79
2023/06/29 10:55:22;;;;;;;16.27;11.25;;;23.20;99.70;;;;;;4896182;29;20115;-79
2023/06/29 10:58:22;;;;;;;19.40;11.77;;;23.20;99.10;;;;;;4891070;29;20125;-79
2023/06/29 11:01:08;;;;;;;18.23;11.68;;;23.20;99.70;;;;;;4886725;29;20580;-80
2023/06/29 11:03:54;;;;;;;20.02;11.43;;;23.20;99.70;;;;;;4893512;29;20134;-79
2023/06/29 11:06:40;;;;;;;17.98;11.75;;;23.10;99.90;;;;;;4875600;29;20040;-79
2023/06/29 11:09:26;;;;;;;19.73;11.88;;;23.20;99.30;;;;;;4907025;29;20162;-79
2023/06/29 11:12:12;;;;;;;18.13;11.00;;;23.20;99.50;;;;;;4883304;29;20052;-79
2023/06/29 11:14:58;;;;;;;17.58;11.20;;;23.30;99.80;;;;;;4908238;29;20056;-79
2023/06/29 11:17:45;;;;;;;14.68;11.20;;;23.30;99.70;;;;;;4888309;29;20044;-79
2023/06/29 11:20:31;;;;;;;16.85;10.77;;;23.40;99.50;;;;;;4897961;29;20049;-79
2023/06/29 11:23:17;;;;;;;15.13;10.38;;;23.30;99.50;;;;;;4886150;29;20153;-80
2023/06/29 11:26:03;;;;;;;15.82;10.63;;;23.30;99.20;;;;;;4880330;29;20138;-81
2023/06/29 11:28:50;;;;;;;16.88;9.77;;;23.30;99.60;;;;;;4882465;29;20033;-81
2023/06/29 11:31:36;;;;;;;16.33;10.65;;;23.40;99.80;;;;;;4868597;29;20136;-81
2023/06/29 11:34:22;;;;;;;15.48;10.95;;;23.30;99.30;;;;;;4882405;29;20041;-80
2023/06/29 11:37:11;;;;;;;17.30;10.30;;;23.30;99.50;;;;;;4885156;29;20489;-79
2023/06/29 11:39:57;;;;;;;14.80;10.07;;;23.40;99.90;;;;;;4873105;29;20048;-80
2023/06/29 11:42:43;;;;;;;15.35;10.55;;;23.30;99.90;;;;;;4884284;29;20064;-80
2023/06/29 11:45:31;;;;;;;16.58;9.95;;;23.30;99.40;;;;;;4885103;29;20378;-80
2023/06/29 11:48:18;;;;;;;15.88;10.70;;;23.30;99.90;;;;;;4880225;29;20132;-80
2023/06/29 11:51:05;;;;;;;16.17;10.63;;;23.30;99.90;;;;;;4869086;29;20068;-82
2023/06/29 11:53:55;;;;;;;13.68;9.25;;;23.30;99.90;;;;;;4875615;29;20189;-80
2023/06/29 11:56:42;;;;;;;14.15;9.90;;;23.40;99.90;;;;;;4871830;29;20040;-80
2023/06/29 11:59:28;;;;;;;14.48;10.65;;;23.40;99.90;;;;;;4866289;29;20080;-79
2023/06/29 12:02:15;;;;;;;14.55;9.48;;;23.40;99.90;;;;;;4881627;29;20072;-80
2023/06/29 12:05:03;;;;;;;17.95;10.88;;;23.40;99.90;;;;;;4882374;29;20128;-80
2023/06/29 12:07:50;;;;;;;13.27;9.65;;;23.40;99.90;;;;;;4867351;29;20077;-80
2023/06/29 12:10:37;;;;;;;15.73;9.70;;;23.40;99.90;;;;;;4861135;29;20043;-80
2023/06/29 12:13:23;;;;;;;16.00;10.30;;;23.40;99.90;;;;;;4866502;29;20045;-80
2023/06/29 12:16:09;;;;;;;15.27;10.25;;;23.40;99.90;;;;;;4881181;29;20543;-80
2023/06/29 12:18:55;;;;;;;14.70;10.38;;;23.30;99.90;;;;;;4866853;29;20060;-79
2023/06/29 12:21:41;;;;;;;12.85;8.75;;;23.40;99.90;;;;;;4873585;29;20083;-79
2023/06/29 12:24:28;;;;;;;13.25;9.02;;;23.40;99.90;;;;;;4885088;29;20049;-79
2023/06/29 12:27:14;;;;;;;13.93;9.88;;;23.40;99.90;;;;;;4896230;29;20046;-79
2023/06/29 12:30:00;;;;;;;12.50;9.52;;;23.30;99.80;;;;;;4885679;29;20040;-79
2023/06/29 12:32:46;;;;;;;12.88;9.38;;;23.30;99.90;;;;;;4865022;29;20052;-79
2023/06/29 12:35:32;;;;;;;15.90;10.00;;;23.30;99.90;;;;;;4909472;29;20466;-78
2023/06/29 12:38:18;;;;;;;13.68;9.15;;;23.30;99.90;;;;;;4896078;29;20063;-79
2023/06/29 12:41:04;;;;;;;13.98;9.27;;;23.40;99.90;;;;;;4877839;29;20138;-79
2023/06/29 12:43:50;;;;;;;12.70;9.10;;;23.30;99.90;;;;;;4894680;29;20063;-79
2023/06/29 12:46:36;;;;;;;14.40;9.38;;;23.30;99.90;;;;;;4892617;29;20040;-79
2023/06/29 12:49:22;;;;;;;13.27;8.60;;;23.40;99.90;;;;;;4896460;29;20060;-78
2023/06/29 12:52:08;;;;;;;11.90;9.23;;;23.40;99.90;;;;;;4879394;29;20048;-79
2023/06/29 12:54:57;;;;;;;12.05;8.48;;;23.40;99.90;;;;;;4889861;29;20035;-80
2023/06/29 12:57:44;;;;;;;13.68;8.77;;;23.40;99.90;;;;;;4889626;29;20048;-80
2023/06/29 13:00:30;;;;;;;15.18;8.57;;;23.40;99.90;;;;;;4877215;29;20127;-80
2023/06/29 13:03:16;;;;;;;12.75;8.95;;;23.40;99.90;;;;;;4911891;29;20063;-80
2023/06/29 13:06:03;;;;;;;13.10;8.90;;;23.40;99.90;;;;;;4894474;29;20041;-79
2023/06/29 13:08:49;;;;;;;15.95;8.93;;;23.40;99.90;;;;;;4894336;29;20115;-79
2023/06/29 13:11:35;;;;;;;15.18;8.60;;;23.50;99.60;;;;;;4878301;29;20078;-80
2023/06/29 13:14:21;;;;;;;13.23;7.97;;;23.40;99.70;;;;;;4891299;29;20048;-79
2023/06/29 13:17:07;;;;;;;16.17;8.45;;;23.50;99.90;;;;;;4902933;29;20492;-79
2023/06/29 13:19:53;;;;;;;11.70;8.60;;;23.50;99.90;;;;;;4889543;29;20348;-79
2023/06/29 13:22:39;;;;;;;12.82;8.68;;;23.50;99.90;;;;;;4897736;29;20128;-79
2023/06/29 13:25:25;;;;;;;12.45;8.43;;;23.50;99.90;;;;;;4899212;29;20127;-79
2023/06/29 13:28:11;;;;;;;12.10;7.57;;;23.50;99.90;;;;;;4887662;29;20541;-78
2023/06/29 13:30:57;;;;;;;11.70;7.78;;;23.50;99.90;;;;;;4875776;29;20485;-79
2023/06/29 13:33:46;;;;;;;12.65;7.75;;;23.50;99.90;;;;;;4883459;29;20103;-78
2023/06/29 13:36:33;;;;;;;11.40;7.82;;;23.50;99.80;;;;;;4883287;29;20087;-79
2023/06/29 13:39:19;;;;;;;11.63;7.85;;;23.60;99.90;;;;;;4903761;29;20044;-79
2023/06/29 13:42:09;;;;;;;14.93;7.78;;;23.60;99.90;;;;;;4901303;29;20048;-78
2023/06/29 13:44:55;;;;;;;14.43;7.97;;;23.60;99.90;;;;;;4877646;29;20056;-78
2023/06/29 13:47:42;;;;;;;10.85;7.60;;;23.50;99.90;;;;;;4877359;29;20095;-78
2023/06/29 13:50:28;;;;;;;12.70;8.18;;;23.50;99.90;;;;;;4887104;29;20046;-79
2023/06/29 13:53:14;;;;;;;13.40;8.10;;;23.50;99.90;;;;;;4893291;29;20060;-79
2023/06/29 13:56:00;;;;;;;10.75;7.60;;;23.40;99.90;;;;;;4878197;29;20049;-79
2023/06/29 13:58:46;;;;;;;14.18;8.25;;;23.40;99.90;;;;;;4889282;29;20050;-79
2023/06/29 14:01:36;;;;;;;12.07;7.97;;;23.40;99.90;;;;;;4889931;29;20103;-78
2023/06/29 14:04:24;;;;;;;13.52;8.15;;;23.40;99.90;;;;;;4888201;29;20044;-79
2023/06/29 14:07:10;;;;;;;12.05;8.52;;;23.50;99.90;;;;;;4881515;29;20516;-79
2023/06/29 14:09:56;;;;;;;12.23;8.25;;;23.40;99.90;;;;;;4899420;29;20067;-79
2023/06/29 14:12:41;;;;;;;11.85;8.50;;;23.50;99.90;;;;;;4884066;29;20075;-79
2023/06/29 14:15:27;;;;;;;11.63;8.35;;;23.40;99.90;;;;;;4884643;29;20076;-79
2023/06/29 14:18:13;;;;;;;13.90;8.00;;;23.40;99.90;;;;;;4889466;29;20047;-79
2023/06/29 14:20:59;;;;;;;13.00;7.43;;;23.40;99.90;;;;;;4887575;29;20474;-79